Time;durP1;ratioP1;P1;durP2;ratioP2;P2;SDS_P1;SDS_P2;PMS_P1;PMS_P2;Temp;Humidity;BMP_temperature;BMP_pressure;BME280_temperature;BME280_humidity;BME280_pressure;Samples;Min_cycle;Max_cycle;Signal;HPM_P1;HPM_P2
2021/05/31 00:00:59;;;;;;;3.03;2.73;;;;;;;7.72;64.54;100517.95;260736;1107;103033;-69
2021/05/31 00:06:05;;;;;;;10.20;3.68;;;;;;;7.67;64.65;100515.05;260571;1107;103063;-68
2021/05/31 00:11:12;;;;;;;2.35;2.15;;;;;;;7.65;64.76;100513.61;261001;1107;103088;-68
2021/05/31 00:16:17;;;;;;;7.40;2.28;;;;;;;7.57;65.21;100511.96;261554;1107;102946;-69
2021/05/31 00:21:22;;;;;;;5.38;2.53;;;;;;;7.49;65.16;100516.60;260720;1107;102959;-67
2021/05/31 00:26:26;;;;;;;3.05;2.10;;;;;;;7.22;64.71;100512.97;260505;1107;103116;-66
2021/05/31 00:31:31;;;;;;;3.35;2.38;;;;;;;7.08;65.31;100507.56;260334;1107;103108;-68
2021/05/31 00:36:36;;;;;;;3.93;2.28;;;;;;;6.98;65.73;100501.80;260585;1107;103039;-67
2021/05/31 00:41:44;;;;;;;4.00;3.28;;;;;;;6.93;66.05;100498.08;260969;1103;102956;-69
2021/05/31 00:46:51;;;;;;;3.10;2.85;;;;;;;6.93;65.79;100500.73;259903;1107;103126;-69
2021/05/31 00:51:57;;;;;;;3.48;3.18;;;;;;;6.82;66.14;100502.06;260568;1107;102994;-69
2021/05/31 00:57:04;;;;;;;3.80;3.30;;;;;;;6.73;65.89;100495.25;259993;1107;102961;-71
2021/05/31 01:02:08;;;;;;;4.43;2.75;;;;;;;6.63;66.51;100500.07;262235;1107;102819;-69
2021/05/31 01:07:23;;;;;;;5.20;3.33;;;;;;;6.54;66.52;100502.02;261460;1107;102977;-67
2021/05/31 01:12:46;;;;;;;5.00;3.18;;;;;;;6.51;66.51;100501.58;262191;1102;101828;-67
2021/05/31 01:18:04;;;;;;;3.63;3.10;;;;;;;6.43;66.83;100495.39;260909;1107;103055;-69
2021/05/31 01:23:14;;;;;;;3.60;3.30;;;;;;;6.26;67.15;100491.36;262642;1107;101719;-68
2021/05/31 01:28:52;;;;;;;2.53;2.33;;;;;;;6.17;67.41;100496.95;262692;1107;101448;-68
2021/05/31 01:33:58;;;;;;;3.20;3.00;;;;;;;6.11;67.68;100490.61;261718;1107;103095;-67
2021/05/31 01:39:04;;;;;;;;;;;;;;;6.02;67.23;100491.72;261354;1106;104292;-68
2021/05/31 01:44:10;;;;;;;2.73;2.23;;;;;;;5.90;67.87;100487.91;261844;1107;102493;-67
2021/05/31 01:49:16;;;;;;;4.43;3.13;;;;;;;5.88;68.30;100485.41;261703;1102;102948;-67
2021/05/31 01:54:22;;;;;;;;;;;;;;;5.92;68.54;100488.54;262083;1107;100998;-68
2021/05/31 01:59:28;;;;;;;7.80;3.53;;;;;;;5.90;68.51;100487.91;260632;1107;104249;-69
2021/05/31 02:04:32;;;;;;;5.50;3.40;;;;;;;5.86;68.92;100481.30;260367;1107;103080;-69
2021/05/31 02:09:38;;;;;;;3.73;3.43;;;;;;;5.77;68.64;100490.38;260019;1107;103094;-70
2021/05/31 02:15:14;;;;;;;4.58;3.45;;;;;;;5.68;69.14;100487.00;260367;1107;103047;-69
2021/05/31 02:20:21;;;;;;;3.18;2.88;;;;;;;5.60;68.95;100482.63;260906;1107;104004;-68
2021/05/31 02:25:27;;;;;;;5.95;4.73;;;;;;;5.60;69.10;100492.39;259773;1107;103078;-70
2021/05/31 02:30:33;;;;;;;5.90;3.47;;;;;;;5.55;69.17;100490.29;260573;1107;102966;-71
2021/05/31 02:35:39;;;;;;;9.33;4.03;;;;;;;5.49;69.38;100491.05;260228;1107;102968;-70
2021/05/31 02:40:44;;;;;;;4.03;2.95;;;;;;;5.41;69.56;100489.31;261126;1106;103070;-70
2021/05/31 02:45:50;;;;;;;2.18;2.03;;;;;;;5.40;69.72;100486.84;260524;1107;103117;-70
2021/05/31 02:50:58;;;;;;;6.55;4.28;;;;;;;5.48;70.36;100488.59;261739;1107;101826;-69
2021/05/31 02:56:03;;;;;;;5.30;3.13;;;;;;;5.61;70.15;100484.27;262355;1107;102059;-69
2021/05/31 03:01:09;;;;;;;6.70;4.40;;;;;;;5.70;70.04;100482.35;261885;1107;102977;-69
2021/05/31 03:06:14;;;;;;;7.50;4.30;;;;;;;5.84;70.67;100484.14;261630;1107;103089;-68
2021/05/31 03:11:18;;;;;;;5.97;4.00;;;;;;;5.97;70.48;100489.63;262430;1107;103064;-68
2021/05/31 03:16:23;;;;;;;13.03;4.03;;;;;;;6.15;70.43;100491.84;261147;1102;102974;-67
2021/05/31 03:21:28;;;;;;;5.25;4.70;;;;;;;6.25;70.68;100481.78;260923;1107;104327;-68
2021/05/31 03:26:33;;;;;;;5.20;3.63;;;;;;;6.40;70.28;100484.39;262663;1107;103281;-68
2021/05/31 03:31:38;;;;;;;6.88;3.78;;;;;;;6.51;70.39;100480.39;261845;1107;102960;-68
2021/05/31 03:36:42;;;;;;;3.98;3.55;;;;;;;6.76;71.03;100486.92;259776;1107;103061;-70
2021/05/31 03:41:47;;;;;;;4.93;2.88;;;;;;;6.96;70.91;100485.27;261278;1107;103014;-68
2021/05/31 03:46:52;;;;;;;6.50;4.10;;;;;;;7.18;70.57;100472.76;262442;1107;101755;-69
2021/05/31 03:51:57;;;;;;;9.10;4.98;;;;;;;7.43;70.48;100481.06;261281;1107;102987;-68
2021/05/31 03:57:03;;;;;;;5.50;3.75;;;;;;;7.71;70.42;100479.15;261083;1107;103101;-68
2021/05/31 04:02:08;;;;;;;4.28;3.23;;;;;;;8.06;70.13;100487.86;261372;1107;103177;-68
2021/05/31 04:12:27;;;;;;;9.23;5.00;;;;;;;8.82;69.94;100484.13;261473;1107;102978;-70
2021/05/31 04:17:32;;;;;;;9.23;6.23;;;;;;;9.95;68.26;100482.81;260868;1107;102976;-69
2021/05/31 04:22:36;;;;;;;7.45;3.88;;;;;;;13.81;64.16;100468.48;260058;1107;103138;-69
2021/05/31 04:27:41;;;;;;;12.83;4.80;;;;;;;15.81;61.41;100474.94;260163;1107;103098;-69
2021/05/31 04:32:47;;;;;;;7.47;4.57;;;;;;;16.42;59.31;100472.88;260052;1107;103141;-68
2021/05/31 04:37:56;;;;;;;4.83;3.20;;;;;;;19.27;55.42;100473.92;260828;1107;103036;-69
2021/05/31 04:43:01;;;;;;;4.28;3.85;;;;;;;19.10;54.71;100477.75;260515;1107;103107;-67
2021/05/31 04:48:06;;;;;;;4.93;4.00;;;;;;;20.49;51.56;100488.54;260399;1107;102968;-69
2021/05/31 04:53:10;;;;;;;4.10;3.70;;;;;;;19.47;51.70;100477.40;260762;1107;102956;-70
2021/05/31 04:58:14;;;;;;;4.73;3.48;;;;;;;18.40;51.50;100476.66;261231;1107;103040;-71
2021/05/31 05:03:19;;;;;;;6.93;3.75;;;;;;;20.14;49.37;100477.94;259880;1103;103192;-69
2021/05/31 05:08:23;;;;;;;6.65;3.10;;;;;;;24.33;45.37;100481.49;259987;1107;104159;-68
2021/05/31 05:13:28;;;;;;;4.15;3.63;;;;;;;27.66;41.78;100479.98;260515;1107;103059;-70
2021/05/31 05:18:33;;;;;;;5.83;3.00;;;;;;;30.30;38.07;100490.72;261335;1107;102856;-70
2021/05/31 05:23:38;;;;;;;2.63;2.43;;;;;;;31.98;34.45;100485.64;262230;1107;102985;-70
2021/05/31 05:28:43;;;;;;;3.73;2.23;;;;;;;33.29;32.55;100494.95;261048;1107;103399;-71
2021/05/31 05:33:47;;;;;;;2.65;1.98;;;;;;;33.19;30.82;100493.57;262174;1107;102185;-71
2021/05/31 05:49:08;;;;;;;1.78;1.50;;;;;;;32.87;26.67;100495.77;261754;1107;102945;-71
2021/05/31 05:54:13;;;;;;;3.17;1.90;;;;;;;34.16;26.51;100490.33;262191;1107;101840;-70
2021/05/31 05:59:18;;;;;;;3.60;2.00;;;;;;;35.32;25.17;100501.13;261605;1107;103430;-70
2021/05/31 06:04:22;;;;;;;1.90;1.60;;;;;;;36.13;23.96;100488.98;261527;1107;103012;-74
2021/05/31 06:09:27;;;;;;;5.33;1.50;;;;;;;36.43;23.07;100495.88;260070;1107;102962;-71
2021/05/31 06:14:32;;;;;;;1.75;1.33;;;;;;;37.06;23.10;100501.98;260648;1107;103668;-73
2021/05/31 06:19:38;;;;;;;2.88;1.55;;;;;;;37.35;21.72;100495.27;260259;1107;102961;-73
2021/05/31 06:24:44;;;;;;;0.80;0.80;;;;;;;37.36;21.20;100498.84;260449;1107;102997;-73
2021/05/31 06:29:49;;;;;;;9.25;2.45;;;;;;;37.27;21.02;100506.81;261062;1107;103013;-72
2021/05/31 06:34:53;;;;;;;3.00;1.65;;;;;;;36.89;20.91;100498.02;260407;1107;105170;-72
2021/05/31 06:39:59;;;;;;;1.30;1.30;;;;;;;36.38;20.64;100496.28;259930;1102;103214;-72
2021/05/31 06:45:07;;;;;;;1.45;1.38;;;;;;;35.54;20.24;100490.98;260054;1107;103103;-73
2021/05/31 06:50:13;;;;;;;1.10;1.10;;;;;;;34.64;21.00;100483.80;260769;1107;103105;-72
2021/05/31 06:55:21;;;;;;;4.78;1.48;;;;;;;33.19;21.11;100484.48;259983;1107;105053;-71
2021/05/31 07:00:28;;;;;;;1.33;0.90;;;;;;;32.00;21.64;100483.33;259883;1107;103100;-70
2021/05/31 07:05:33;;;;;;;0.90;0.90;;;;;;;32.02;22.23;100471.94;261442;1107;103183;-72
2021/05/31 07:10:39;;;;;;;2.15;1.40;;;;;;;31.96;22.05;100476.13;260738;1103;102987;-71
2021/05/31 07:15:44;;;;;;;1.10;1.00;;;;;;;31.64;21.94;100473.42;260241;1107;103201;-71
2021/05/31 07:20:49;;;;;;;0.90;0.90;;;;;;;30.41;22.51;100480.03;260812;1107;102501;-70
2021/05/31 07:25:54;;;;;;;1.28;0.93;;;;;;;28.95;23.55;100469.92;262051;1107;101940;-72
2021/05/31 07:31:00;;;;;;;1.10;0.98;;;;;;;27.80;24.40;100464.11;261266;1107;102985;-72
2021/05/31 07:36:04;;;;;;;3.00;1.50;;;;;;;26.17;25.37;100466.13;262630;1107;102559;-72
2021/05/31 07:41:09;;;;;;;;;;;;;;;25.44;26.52;100467.72;262106;1107;102949;-71
2021/05/31 07:46:15;;;;;;;2.68;1.88;;;;;;;25.31;27.20;100463.20;261105;1107;102945;-70
2021/05/31 07:51:20;;;;;;;2.28;1.60;;;;;;;25.29;27.88;100459.17;262065;1107;102963;-73
2021/05/31 07:56:27;;;;;;;3.38;1.60;;;;;;;25.23;28.04;100449.51;261883;1107;102967;-71
2021/05/31 08:01:34;;;;;;;2.05;1.18;;;;;;;24.45;26.40;100449.86;260273;1106;103114;-71
2021/05/31 08:06:39;;;;;;;3.18;1.63;;;;;;;23.90;26.82;100454.63;261664;1107;102966;-71
2021/05/31 08:11:44;;;;;;;3.33;0.80;;;;;;;22.96;26.42;100454.31;261427;1107;101924;-72
2021/05/31 08:16:49;;;;;;;1.20;0.93;;;;;;;22.47;27.28;100456.47;260929;1102;103180;-71
2021/05/31 08:21:53;;;;;;;1.25;1.23;;;;;;;22.64;27.44;100441.52;259988;1103;103336;-69
2021/05/31 08:26:59;;;;;;;1.65;1.15;;;;;;;22.90;27.80;100456.34;259986;1107;103162;-68
2021/05/31 08:32:05;;;;;;;2.85;1.08;;;;;;;22.26;27.44;100457.91;260242;1106;102976;-67
2021/05/31 08:37:09;;;;;;;1.15;1.05;;;;;;;21.36;28.22;100455.27;260669;1107;103017;-70
2021/05/31 08:42:14;;;;;;;1.15;1.03;;;;;;;20.88;29.42;100457.88;260909;1107;103141;-71
2021/05/31 08:47:19;;;;;;;1.23;0.75;;;;;;;20.44;29.61;100456.11;260595;1107;103112;-72
2021/05/31 08:52:24;;;;;;;1.88;0.80;;;;;;;20.07;28.91;100458.48;260447;1107;103113;-68
2021/05/31 08:57:28;;;;;;;1.20;1.10;;;;;;;19.80;29.47;100454.30;260849;1107;103810;-70
2021/05/31 09:02:35;;;;;;;0.80;0.80;;;;;;;19.77;30.56;100456.76;260790;1107;102952;-69
2021/05/31 09:07:47;;;;;;;5.95;0.93;;;;;;;19.41;28.75;100448.75;260542;1107;103007;-69
2021/05/31 09:12:52;;;;;;;0.98;0.98;;;;;;;19.55;30.55;100442.80;261011;1107;103059;-71
2021/05/31 09:17:57;;;;;;;0.93;0.45;;;;;;;20.00;30.40;100445.26;261195;1107;103011;-69
2021/05/31 09:23:01;;;;;;;4.55;0.78;;;;;;;20.61;30.34;100434.02;259973;1107;103697;-69
2021/05/31 09:28:11;;;;;;;5.88;1.60;;;;;;;20.46;30.32;100436.87;260987;1107;102962;-69
2021/05/31 09:33:17;;;;;;;2.58;1.08;;;;;;;20.00;30.59;100439.84;262346;1107;102980;-70
2021/05/31 09:38:23;;;;;;;1.77;1.00;;;;;;;20.17;30.96;100440.30;262238;1107;102965;-71
2021/05/31 09:43:31;;;;;;;4.58;1.43;;;;;;;20.21;31.10;100429.69;262678;1107;101543;-70
2021/05/31 09:48:36;;;;;;;3.60;1.00;;;;;;;20.58;30.54;100434.58;262675;1107;103470;-69
2021/05/31 09:53:41;;;;;;;;;;;;;;;21.14;30.14;100420.48;262651;1107;101461;-69
2021/05/31 09:59:10;;;;;;;0.90;0.90;;;;;;;21.50;29.67;100412.77;261574;1107;102963;-69
2021/05/31 10:09:22;;;;;;;0.93;0.85;;;;;;;21.46;29.43;100417.97;261106;1107;103040;-70
2021/05/31 10:14:28;;;;;;;0.98;0.80;;;;;;;21.04;29.68;100407.87;260149;1107;103056;-70
2021/05/31 10:19:33;;;;;;;1.10;1.00;;;;;;;21.25;29.70;100394.91;259923;1106;102946;-69
2021/05/31 10:24:40;;;;;;;1.65;0.83;;;;;;;21.54;29.16;100402.95;260130;1107;103819;-69
2021/05/31 10:29:49;;;;;;;3.03;1.10;;;;;;;21.67;29.28;100401.45;260802;1106;102966;-70
2021/05/31 10:34:55;;;;;;;0.78;0.78;;;;;;;21.18;28.93;100402.55;260406;1107;103081;-70
2021/05/31 10:40:02;;;;;;;;;;;;;;;20.44;28.64;100391.11;260594;1107;102959;-69
2021/05/31 10:45:18;;;;;;;1.00;0.78;;;;;;;20.30;29.73;100394.70;260019;1107;103056;-70
2021/05/31 10:50:29;;;;;;;1.07;0.97;;;;;;;19.87;30.41;100394.48;260158;1107;103187;-70
2021/05/31 10:55:35;;;;;;;1.47;0.77;;;;;;;19.24;30.37;100394.22;260106;1107;103725;-69
2021/05/31 11:00:40;;;;;;;3.03;0.95;;;;;;;19.23;30.87;100384.49;260029;1107;103123;-68
2021/05/31 11:05:46;;;;;;;0.30;0.30;;;;;;;19.77;30.10;100376.41;260043;1107;103067;-69
2021/05/31 11:10:57;;;;;;;2.85;1.45;;;;;;;19.23;29.80;100383.68;260635;1107;103010;-69
2021/05/31 11:16:06;;;;;;;1.33;1.00;;;;;;;19.58;30.39;100377.31;260293;1107;103072;-69
2021/05/31 11:21:24;;;;;;;7.83;1.58;;;;;;;20.08;30.30;100370.80;260612;1107;103330;-69
2021/05/31 11:26:32;;;;;;;3.63;1.35;;;;;;;20.71;30.54;100370.81;262046;1107;101694;-70
2021/05/31 11:31:40;;;;;;;0.70;0.70;;;;;;;21.06;30.03;100375.86;261360;1107;103062;-70
2021/05/31 11:36:45;;;;;;;7.20;1.33;;;;;;;20.60;29.61;100366.58;262295;1107;101899;-70
2021/05/31 11:41:51;;;;;;;;;;;;;;;20.65;30.19;100359.22;262754;1107;101489;-70
2021/05/31 11:47:03;;;;;;;0.80;0.80;;;;;;;20.93;29.42;100357.56;262666;1107;101639;-71
2021/05/31 11:52:10;;;;;;;2.77;1.00;;;;;;;21.16;29.45;100355.94;262531;1107;101286;-71
2021/05/31 11:57:21;;;;;;;1.20;1.03;;;;;;;20.50;28.35;100351.22;262501;1107;101102;-70
2021/05/31 12:02:27;;;;;;;3.23;1.18;;;;;;;20.60;29.79;100347.63;260044;1107;103057;-69
2021/05/31 12:07:42;;;;;;;0.90;0.90;;;;;;;21.08;29.54;100343.05;260156;1107;103366;-69
2021/05/31 12:12:48;;;;;;;0.93;0.93;;;;;;;20.95;29.17;100347.25;260373;1107;103124;-69
2021/05/31 12:17:54;;;;;;;1.43;1.10;;;;;;;20.51;29.95;100345.52;261155;1107;102971;-68
2021/05/31 12:23:01;;;;;;;0.90;0.90;;;;;;;19.97;29.81;100348.40;260011;1107;103069;-69
2021/05/31 12:28:06;;;;;;;1.85;1.58;;;;;;;19.61;30.68;100338.89;260446;1107;103164;-69
2021/05/31 12:33:13;;;;;;;1.50;0.90;;;;;;;19.56;31.05;100338.95;260177;1107;102963;-69
2021/05/31 12:38:22;;;;;;;0.88;0.88;;;;;;;19.24;31.13;100329.35;261020;1107;102978;-70
2021/05/31 12:43:31;;;;;;;2.68;1.13;;;;;;;18.99;31.31;100332.94;260190;1107;103072;-69
2021/05/31 12:48:37;;;;;;;1.00;0.90;;;;;;;19.55;30.89;100321.92;260083;1107;103014;-70
2021/05/31 12:53:45;;;;;;;7.63;1.53;;;;;;;19.47;30.79;100317.06;261338;1107;103046;-71
2021/05/31 12:58:50;;;;;;;2.10;1.35;;;;;;;19.16;31.51;100316.41;260076;1107;102986;-69
2021/05/31 13:03:57;;;;;;;1.03;1.00;;;;;;;18.86;32.63;100313.83;260474;1107;103061;-68
2021/05/31 13:09:08;;;;;;;0.78;0.75;;;;;;;18.65;32.15;100315.78;261661;1107;102936;-68
2021/05/31 13:14:39;;;;;;;0.95;0.95;;;;;;;18.60;32.61;100308.50;261412;1107;103039;-69
2021/05/31 13:19:43;;;;;;;1.28;0.98;;;;;;;19.23;31.86;100303.41;261270;1101;103001;-69
2021/05/31 13:24:51;;;;;;;0.95;0.95;;;;;;;19.39;31.78;100313.04;261662;1107;103075;-71
2021/05/31 13:30:07;;;;;;;1.85;1.25;;;;;;;19.29;32.63;100304.16;261631;1107;103016;-71
2021/05/31 13:35:12;;;;;;;0.98;0.98;;;;;;;19.00;32.82;100302.14;261715;1107;101623;-69
2021/05/31 13:40:17;;;;;;;2.47;1.20;;;;;;;18.93;32.77;100287.33;262083;1107;102978;-71
2021/05/31 13:45:22;;;;;;;0.87;0.87;;;;;;;19.26;33.12;100288.53;262442;1107;101825;-71
2021/05/31 13:50:29;;;;;;;1.20;1.20;;;;;;;19.56;32.69;100288.38;262624;1107;102439;-71
2021/05/31 13:55:35;;;;;;;1.37;0.80;;;;;;;19.28;32.39;100283.63;262557;1107;101467;-70
2021/05/31 14:00:40;;;;;;;1.13;1.13;;;;;;;18.99;32.50;100288.91;262648;1107;101581;-71
2021/05/31 14:05:51;;;;;;;1.60;1.50;;;;;;;18.81;32.61;100288.45;261936;1107;103035;-69
2021/05/31 14:10:57;;;;;;;0.90;0.90;;;;;;;18.79;33.46;100287.09;260869;1103;103127;-70
2021/05/31 14:16:02;;;;;;;1.18;1.13;;;;;;;18.72;33.37;100283.88;260863;1107;103033;-70
2021/05/31 14:21:06;;;;;;;1.40;1.30;;;;;;;18.77;33.69;100291.97;260088;1102;103075;-69
2021/05/31 14:26:12;;;;;;;2.40;1.00;;;;;;;19.11;33.71;100284.00;261144;1106;103091;-70
2021/05/31 14:31:16;;;;;;;1.18;1.13;;;;;;;19.36;33.80;100266.83;261337;1107;101548;-70
2021/05/31 14:36:24;;;;;;;1.83;1.63;;;;;;;19.37;33.11;100274.66;260632;1107;103536;-70
2021/05/31 14:41:29;;;;;;;2.73;1.43;;;;;;;19.18;34.38;100269.10;260039;1102;103126;-69
2021/05/31 14:46:36;;;;;;;1.10;1.10;;;;;;;18.96;34.49;100268.65;260073;1102;102979;-70
2021/05/31 14:51:40;;;;;;;3.55;1.53;;;;;;;18.94;34.51;100262.74;260402;1107;103375;-70
2021/05/31 14:56:44;;;;;;;1.90;1.40;;;;;;;18.73;34.22;100264.70;260029;1107;103343;-70
2021/05/31 15:01:48;;;;;;;4.60;1.15;;;;;;;18.45;35.17;100257.19;260010;1107;102991;-70
2021/05/31 15:06:52;;;;;;;1.37;1.27;;;;;;;18.42;34.96;100257.73;260637;1107;103182;-70
2021/05/31 15:11:57;;;;;;;2.65;1.35;;;;;;;18.45;35.02;100241.80;260281;1107;103035;-70
2021/05/31 15:17:02;;;;;;;2.03;1.43;;;;;;;18.58;34.58;100242.32;260667;1108;102989;-70
2021/05/31 15:22:11;;;;;;;2.75;1.33;;;;;;;18.79;35.00;100238.48;260823;1107;102969;-69
2021/05/31 15:27:16;;;;;;;3.95;1.40;;;;;;;18.94;34.08;100241.13;260611;1107;103039;-70
2021/05/31 15:32:19;;;;;;;3.95;1.93;;;;;;;18.87;34.06;100237.11;260651;1102;103194;-70
2021/05/31 15:37:24;;;;;;;1.23;1.13;;;;;;;18.71;34.14;100236.34;261347;1107;102971;-70
2021/05/31 15:42:28;;;;;;;1.40;1.35;;;;;;;18.57;34.50;100238.00;260744;1107;102978;-70
2021/05/31 15:47:33;;;;;;;1.33;1.23;;;;;;;18.63;34.51;100242.34;262079;1107;103095;-70
2021/05/31 15:52:38;;;;;;;1.60;1.47;;;;;;;18.66;34.88;100230.95;262336;1107;102876;-72
2021/05/31 15:57:43;;;;;;;1.60;1.50;;;;;;;18.72;34.90;100240.66;262677;1107;101337;-72
2021/05/31 16:02:48;;;;;;;5.00;2.03;;;;;;;18.57;35.16;100246.91;261803;1107;103137;-71
2021/05/31 16:07:54;;;;;;;1.43;1.28;;;;;;;18.48;35.08;100235.86;261149;1107;102993;-72
2021/05/31 16:13:09;;;;;;;2.33;1.43;;;;;;;18.43;35.48;100227.77;260772;1102;103488;-70
2021/05/31 16:18:13;;;;;;;1.30;1.20;;;;;;;18.22;35.68;100225.41;260047;1103;102960;-70
2021/05/31 16:23:26;;;;;;;1.27;1.27;;;;;;;18.02;35.79;100221.67;261819;1102;103022;-68
2021/05/31 16:28:50;;;;;;;3.53;1.60;;;;;;;17.74;36.11;100228.41;260858;1107;103017;-66
2021/05/31 16:33:55;;;;;;;1.55;1.45;;;;;;;17.57;36.86;100222.45;260785;1107;103320;-67
2021/05/31 16:39:00;;;;;;;4.08;1.73;;;;;;;17.48;37.34;100215.97;260197;1106;103015;-67
2021/05/31 16:44:05;;;;;;;1.65;1.33;;;;;;;17.46;36.98;100215.42;260753;1107;102982;-68
2021/05/31 16:49:09;;;;;;;1.38;1.38;;;;;;;17.32;37.28;100211.66;260447;1107;102960;-69
2021/05/31 16:54:13;;;;;;;1.53;1.53;;;;;;;17.14;37.52;100205.68;259865;1107;103058;-69
2021/05/31 16:59:17;;;;;;;1.78;1.40;;;;;;;16.98;38.11;100200.53;259984;1107;103788;-71
2021/05/31 17:04:21;;;;;;;5.85;1.30;;;;;;;16.78;38.27;100202.11;260004;1103;103558;-69
2021/05/31 17:09:26;;;;;;;2.23;1.70;;;;;;;16.69;40.13;100210.94;260832;1107;103037;-71
2021/05/31 17:14:49;;;;;;;1.75;1.45;;;;;;;16.63;41.87;100201.19;260448;1107;102964;-67
2021/05/31 17:19:58;;;;;;;2.35;1.55;;;;;;;16.54;42.67;100205.45;260886;1107;102958;-69
2021/05/31 17:25:04;;;;;;;1.65;1.55;;;;;;;16.44;43.67;100207.05;260323;1107;102968;-68
2021/05/31 17:30:14;;;;;;;1.78;1.55;;;;;;;16.33;44.27;100216.13;260222;1107;103003;-68
2021/05/31 17:35:20;;;;;;;3.95;2.08;;;;;;;16.23;44.78;100209.86;261945;1107;103492;-67
2021/05/31 17:40:26;;;;;;;;;;;;;;;16.12;44.63;100214.39;262239;1107;102962;-68
2021/05/31 17:45:31;;;;;;;5.33;2.03;;;;;;;15.99;44.90;100207.57;262344;1107;101839;-68
2021/05/31 17:50:38;;;;;;;4.63;1.70;;;;;;;15.90;45.03;100208.33;262635;1107;102323;-70
2021/05/31 17:55:43;;;;;;;1.87;1.77;;;;;;;15.76;45.81;100206.07;262302;1107;102958;-70
2021/05/31 18:00:48;;;;;;;6.63;1.93;;;;;;;15.62;46.11;100210.24;261869;1107;103059;-69
2021/05/31 18:05:53;;;;;;;2.80;2.10;;;;;;;15.44;46.96;100213.29;260999;1107;102913;-69
2021/05/31 18:10:58;;;;;;;2.18;1.75;;;;;;;15.22;46.46;100210.67;261374;1107;102927;-70
2021/05/31 18:16:03;;;;;;;2.85;1.73;;;;;;;15.01;48.06;100206.95;261739;1107;102088;-69
2021/05/31 18:21:08;;;;;;;1.83;1.73;;;;;;;14.78;48.44;100207.23;260996;1107;103020;-69
2021/05/31 18:26:13;;;;;;;4.25;2.35;;;;;;;14.57;49.04;100202.69;261248;1107;102967;-69
2021/05/31 18:31:17;;;;;;;9.38;4.10;;;;;;;14.35;49.41;100219.55;261500;1107;102819;-68
2021/05/31 18:36:29;;;;;;;4.83;3.80;;;;;;;14.04;50.65;100218.31;260888;1107;103073;-69
2021/05/31 18:41:40;;;;;;;6.55;3.80;;;;;;;13.72;50.77;100222.63;260325;1107;103095;-68
2021/05/31 18:46:47;;;;;;;5.45;3.38;;;;;;;13.50;51.82;100217.16;260828;1106;103390;-68
2021/05/31 18:51:51;;;;;;;;;;;;;;;13.26;51.59;100219.15;260226;1107;103081;-69
2021/05/31 18:56:56;;;;;;;3.95;2.40;;;;;;;12.92;52.56;100231.59;259954;1107;103431;-67
2021/05/31 19:02:02;;;;;;;6.68;3.15;;;;;;;12.67;52.96;100223.06;260123;1107;102965;-68
2021/05/31 19:07:10;;;;;;;3.80;2.53;;;;;;;12.42;53.36;100234.05;260800;1107;102991;-66
2021/05/31 19:12:19;;;;;;;4.55;2.90;;;;;;;12.19;54.37;100239.41;260850;1107;102966;-67
2021/05/31 19:17:24;;;;;;;3.80;2.07;;;;;;;11.96;54.61;100238.34;261752;1107;102937;-66
2021/05/31 19:22:27;;;;;;;2.63;2.25;;;;;;;11.76;55.37;100240.50;261706;1106;102969;-67
2021/05/31 19:27:32;;;;;;;2.18;1.98;;;;;;;11.62;55.73;100247.08;261819;1107;102914;-67
2021/05/31 19:32:36;;;;;;;4.18;2.13;;;;;;;11.42;55.80;100242.86;262178;1107;102935;-68
2021/05/31 19:37:41;;;;;;;5.65;2.33;;;;;;;11.19;56.49;100237.45;262244;1107;103038;-66
2021/05/31 19:42:49;;;;;;;4.73;2.15;;;;;;;10.95;56.82;100239.21;262533;1107;101457;-67
2021/05/31 19:47:56;;;;;;;7.10;2.20;;;;;;;10.81;57.08;100245.73;262575;1107;101390;-67
2021/05/31 19:53:02;;;;;;;5.47;4.13;;;;;;;10.69;58.19;100251.02;262258;1107;102923;-67
2021/05/31 20:03:35;;;;;;;4.83;3.80;;;;;;;10.41;59.07;100248.02;262242;1107;101275;-69
2021/05/31 20:08:42;;;;;;;9.70;3.90;;;;;;;10.31;59.04;100253.06;261004;1103;102943;-68
2021/05/31 20:13:50;;;;;;;4.73;2.90;;;;;;;10.18;59.05;100245.97;260740;1107;103697;-68
2021/05/31 20:18:54;;;;;;;4.10;3.33;;;;;;;10.02;60.08;100249.21;260640;1106;103005;-70
2021/05/31 20:23:58;;;;;;;6.83;3.93;;;;;;;9.81;59.57;100247.72;260606;1107;103064;-66
2021/05/31 20:29:04;;;;;;;3.98;3.73;;;;;;;9.80;60.83;100249.57;261232;1107;103157;-66
2021/05/31 20:34:10;;;;;;;5.53;4.25;;;;;;;9.86;60.97;100252.41;261149;1102;102964;-66
2021/05/31 20:39:32;;;;;;;3.78;3.20;;;;;;;9.72;61.50;100243.72;260690;1107;103183;-66
2021/05/31 20:44:38;;;;;;;5.00;3.30;;;;;;;9.50;61.33;100248.56;260393;1102;103038;-67
2021/05/31 20:49:46;;;;;;;5.08;3.38;;;;;;;9.31;61.94;100260.16;260617;1106;103116;-67
2021/05/31 20:54:51;;;;;;;3.95;3.65;;;;;;;9.14;61.91;100251.06;260743;1107;103085;-67
2021/05/31 20:59:56;;;;;;;3.30;3.00;;;;;;;9.01;61.98;100254.59;261026;1107;103111;-65
2021/05/31 21:05:03;;;;;;;3.50;3.18;;;;;;;8.88;63.06;100251.97;260286;1107;102963;-66
2021/05/31 21:10:19;;;;;;;8.58;5.60;;;;;;;8.76;62.13;100246.52;261169;1107;102949;-66
2021/05/31 21:15:25;;;;;;;8.28;5.98;;;;;;;8.67;62.92;100237.14;260175;1107;103099;-64
2021/05/31 21:20:34;;;;;;;7.90;4.93;;;;;;;8.55;63.51;100242.30;261158;1107;103072;-68
2021/05/31 21:25:39;;;;;;;13.48;8.08;;;;;;;8.46;64.08;100248.05;261261;1107;102968;-67
2021/05/31 21:30:45;;;;;;;13.88;6.50;;;;;;;8.39;64.40;100246.22;260978;1107;103215;-67
2021/05/31 21:36:12;;;;;;;6.68;6.08;;;;;;;8.31;64.05;100245.58;261730;1107;103067;-66
2021/05/31 21:41:16;;;;;;;14.18;6.68;;;;;;;8.23;64.83;100249.30;261582;1107;102946;-68
2021/05/31 21:46:22;;;;;;;12.48;9.13;;;;;;;8.07;64.68;100253.17;260877;1107;102975;-69
2021/05/31 21:51:26;;;;;;;12.35;8.68;;;;;;;7.99;64.73;100252.56;262097;1107;103484;-69
2021/05/31 21:56:34;;;;;;;10.97;7.80;;;;;;;7.92;64.71;100251.77;262028;1107;103046;-67
2021/05/31 22:01:40;;;;;;;8.63;6.87;;;;;;;7.89;65.22;100257.48;262201;1107;102975;-68
2021/05/31 22:06:45;;;;;;;9.70;5.70;;;;;;;7.81;65.86;100253.19;262404;1107;102937;-68
2021/05/31 22:11:50;;;;;;;8.47;5.77;;;;;;;7.72;65.05;100252.56;262082;1107;103075;-67
2021/05/31 22:17:02;;;;;;;8.57;5.17;;;;;;;7.59;66.11;100249.92;262155;1107;102385;-68
2021/05/31 22:27:49;;;;;;;10.23;7.53;;;;;;;7.41;66.08;100249.67;260593;1107;102994;-69
2021/05/31 22:32:56;;;;;;;;;;;;;;;7.49;67.26;100241.53;260772;1107;103062;-67
2021/05/31 22:38:03;;;;;;;13.63;9.55;;;;;;;7.43;67.28;100235.19;260706;1107;103136;-68
2021/05/31 22:53:52;;;;;;;9.67;6.00;;;;;;;7.07;67.72;100222.27;260630;1107;103109;-66
2021/05/31 23:15:03;;;;;;;;;;;;;;;6.75;67.34;100226.44;262018;1107;103017;-65
2021/05/31 23:20:09;;;;;;;10.05;6.43;;;;;;;6.57;68.11;100226.16;261544;1103;102942;-66
2021/05/31 23:25:15;;;;;;;5.90;5.43;;;;;;;6.47;67.63;100208.99;261654;1107;102848;-66
2021/05/31 23:30:21;;;;;;;16.08;10.48;;;;;;;6.46;68.49;100212.66;261858;1107;102949;-65
2021/05/31 23:35:25;;;;;;;8.00;7.00;;;;;;;6.48;68.24;100216.73;261574;1106;103014;-66
2021/05/31 23:40:32;;;;;;;12.45;9.90;;;;;;;6.60;69.02;100217.01;261943;1107;103141;-65
2021/05/31 23:45:41;;;;;;;7.45;5.75;;;;;;;6.63;69.16;100208.67;262216;1107;102946;-66
2021/05/31 23:50:45;;;;;;;8.55;7.15;;;;;;;6.47;68.75;100201.86;262392;1107;102913;-65
2021/05/31 23:55:50;;;;;;;7.23;6.10;;;;;;;6.28;68.56;100208.70;262098;1107;102953;-66
